sensor_id;sensor_type;location;lat;lon;timestamp;temperature;humidity
20349;DHT22;10332;50.208;18.988;2023-12-04T00:02:10;-1.60;1.00
20349;DHT22;10332;50.208;18.988;2023-12-04T00:04:37;-1.50;1.00
20349;DHT22;10332;50.208;18.988;2023-12-04T00:07:05;-1.50;1.00
20349;DHT22;10332;50.208;18.988;2023-12-04T00:09:32;-1.50;1.00
20349;DHT22;10332;50.208;18.988;2023-12-04T00:11:59;-1.50;1.00
20349;DHT22;10332;50.208;18.988;2023-12-04T00:14:27;-1.50;1.00
20349;DHT22;10332;50.208;18.988;2023-12-04T00:16:55;-1.30;1.00
20349;DHT22;10332;50.208;18.988;2023-12-04T00:19:22;-1.50;1.00
20349;DHT22;10332;50.208;18.988;2023-12-04T00:21:50;-1.50;1.00
20349;DHT22;10332;50.208;18.988;2023-12-04T00:24:18;-1.60;1.00
20349;DHT22;10332;50.208;18.988;2023-12-04T00:26:46;-1.60;1.00
20349;DHT22;10332;50.208;18.988;2023-12-04T00:29:13;-1.60;99.90
20349;DHT22;10332;50.208;18.988;2023-12-04T00:31:41;-1.60;99.90
20349;DHT22;10332;50.208;18.988;2023-12-04T00:34:09;-1.60;99.90
20349;DHT22;10332;50.208;18.988;2023-12-04T00:36:37;-1.60;1.00
20349;DHT22;10332;50.208;18.988;2023-12-04T00:39:04;-1.60;99.90
20349;DHT22;10332;50.208;18.988;2023-12-04T00:41:32;-1.70;99.90
20349;DHT22;10332;50.208;18.988;2023-12-04T00:43:59;-1.60;1.00
20349;DHT22;10332;50.208;18.988;2023-12-04T00:46:27;-1.70;1.00
20349;DHT22;10332;50.208;18.988;2023-12-04T00:48:54;-1.70;1.00
20349;DHT22;10332;50.208;18.988;2023-12-04T00:51:21;-1.70;1.00
20349;DHT22;10332;50.208;18.988;2023-12-04T00:53:49;-1.70;1.00
20349;DHT22;10332;50.208;18.988;2023-12-04T00:56:16;-1.70;1.00
20349;DHT22;10332;50.208;18.988;2023-12-04T00:58:43;-1.70;1.00
20349;DHT22;10332;50.208;18.988;2023-12-04T01:01:11;-1.70;1.00
20349;DHT22;10332;50.208;18.988;2023-12-04T01:03:38;-1.60;1.00
20349;DHT22;10332;50.208;18.988;2023-12-04T01:06:06;-1.60;1.00
20349;DHT22;10332;50.208;18.988;2023-12-04T01:08:33;-1.70;99.90
20349;DHT22;10332;50.208;18.988;2023-12-04T01:11:01;-1.70;99.90
20349;DHT22;10332;50.208;18.988;2023-12-04T01:13:28;-1.70;99.90
20349;DHT22;10332;50.208;18.988;2023-12-04T01:15:55;-1.80;1.00
20349;DHT22;10332;50.208;18.988;2023-12-04T01:18:23;-1.80;1.00
20349;DHT22;10332;50.208;18.988;2023-12-04T01:20:50;-1.80;4.40
20349;DHT22;10332;50.208;18.988;2023-12-04T01:23:17;-1.90;24.70
20349;DHT22;10332;50.208;18.988;2023-12-04T01:25:45;-1.90;99.90
20349;DHT22;10332;50.208;18.988;2023-12-04T01:28:12;-1.90;99.90
20349;DHT22;10332;50.208;18.988;2023-12-04T01:30:40;-1.80;99.90
20349;DHT22;10332;50.208;18.988;2023-12-04T01:33:07;-1.90;99.90
20349;DHT22;10332;50.208;18.988;2023-12-04T01:35:35;-1.90;99.90
20349;DHT22;10332;50.208;18.988;2023-12-04T01:38:03;-1.80;99.90
20349;DHT22;10332;50.208;18.988;2023-12-04T01:40:30;-1.80;99.90
20349;DHT22;10332;50.208;18.988;2023-12-04T01:42:57;-1.80;99.90
20349;DHT22;10332;50.208;18.988;2023-12-04T01:45:25;-1.90;24.00
20349;DHT22;10332;50.208;18.988;2023-12-04T01:47:53;-1.90;99.90
20349;DHT22;10332;50.208;18.988;2023-12-04T01:50:21;-1.90;99.90
20349;DHT22;10332;50.208;18.988;2023-12-04T01:52:49;-1.90;99.90
20349;DHT22;10332;50.208;18.988;2023-12-04T01:55:18;-1.80;99.90
20349;DHT22;10332;50.208;18.988;2023-12-04T01:57:45;-2.00;99.90
20349;DHT22;10332;50.208;18.988;2023-12-04T02:00:13;-2.00;99.90
20349;DHT22;10332;50.208;18.988;2023-12-04T02:02:42;-2.00;99.90
20349;DHT22;10332;50.208;18.988;2023-12-04T02:05:11;-2.00;99.90
20349;DHT22;10332;50.208;18.988;2023-12-04T02:07:40;-2.00;99.90
20349;DHT22;10332;50.208;18.988;2023-12-04T02:10:08;-2.00;99.90
20349;DHT22;10332;50.208;18.988;2023-12-04T02:12:36;-2.10;99.90
20349;DHT22;10332;50.208;18.988;2023-12-04T02:15:04;-2.20;99.90
20349;DHT22;10332;50.208;18.988;2023-12-04T02:17:32;-2.20;99.90
20349;DHT22;10332;50.208;18.988;2023-12-04T02:20:01;-2.30;99.90
20349;DHT22;10332;50.208;18.988;2023-12-04T02:22:30;-2.30;1.00
20349;DHT22;10332;50.208;18.988;2023-12-04T02:24:57;-2.30;1.00
20349;DHT22;10332;50.208;18.988;2023-12-04T02:27:29;-2.40;1.00
20349;DHT22;10332;50.208;18.988;2023-12-04T02:30:00;-2.20;1.00
20349;DHT22;10332;50.208;18.988;2023-12-04T02:32:30;-2.40;1.00
20349;DHT22;10332;50.208;18.988;2023-12-04T02:34:59;-2.50;1.00
20349;DHT22;10332;50.208;18.988;2023-12-04T02:37:29;-2.50;1.00
20349;DHT22;10332;50.208;18.988;2023-12-04T02:39:58;-2.50;1.00
20349;DHT22;10332;50.208;18.988;2023-12-04T02:42:25;-2.50;2.30
20349;DHT22;10332;50.208;18.988;2023-12-04T02:44:53;-2.30;99.90
20349;DHT22;10332;50.208;18.988;2023-12-04T02:47:20;-2.40;99.90
20349;DHT22;10332;50.208;18.988;2023-12-04T02:49:48;-2.40;99.90
20349;DHT22;10332;50.208;18.988;2023-12-04T02:52:15;-2.30;99.90
20349;DHT22;10332;50.208;18.988;2023-12-04T02:54:43;-2.30;99.90
20349;DHT22;10332;50.208;18.988;2023-12-04T02:57:10;-2.30;99.90
20349;DHT22;10332;50.208;18.988;2023-12-04T02:59:37;-2.20;99.90
20349;DHT22;10332;50.208;18.988;2023-12-04T03:02:05;-2.20;45.00
20349;DHT22;10332;50.208;18.988;2023-12-04T03:04:34;-2.20;6.90
20349;DHT22;10332;50.208;18.988;2023-12-04T03:07:01;-2.20;1.00
20349;DHT22;10332;50.208;18.988;2023-12-04T03:09:29;-2.20;1.00
20349;DHT22;10332;50.208;18.988;2023-12-04T03:12:16;-2.20;1.00
20349;DHT22;10332;50.208;18.988;2023-12-04T03:14:44;-2.20;19.90
20349;DHT22;10332;50.208;18.988;2023-12-04T03:17:11;-2.20;99.90
20349;DHT22;10332;50.208;18.988;2023-12-04T03:19:40;-2.30;99.90
20349;DHT22;10332;50.208;18.988;2023-12-04T03:22:07;-2.30;99.90
20349;DHT22;10332;50.208;18.988;2023-12-04T03:24:35;-2.30;99.90
20349;DHT22;10332;50.208;18.988;2023-12-04T03:27:02;-2.30;99.90
20349;DHT22;10332;50.208;18.988;2023-12-04T03:29:30;-2.20;1.00
20349;DHT22;10332;50.208;18.988;2023-12-04T03:31:57;-2.20;1.00
20349;DHT22;10332;50.208;18.988;2023-12-04T03:34:25;-2.20;99.90
20349;DHT22;10332;50.208;18.988;2023-12-04T03:36:52;-2.20;99.90
20349;DHT22;10332;50.208;18.988;2023-12-04T03:39:19;-2.20;99.90
20349;DHT22;10332;50.208;18.988;2023-12-04T03:41:47;-2.20;99.90
20349;DHT22;10332;50.208;18.988;2023-12-04T03:44:15;-2.20;99.90
20349;DHT22;10332;50.208;18.988;2023-12-04T03:46:42;-2.20;99.90
20349;DHT22;10332;50.208;18.988;2023-12-04T03:49:09;-2.20;99.90
20349;DHT22;10332;50.208;18.988;2023-12-04T03:51:36;-2.30;1.00
20349;DHT22;10332;50.208;18.988;2023-12-04T03:54:04;-2.20;1.00
20349;DHT22;10332;50.208;18.988;2023-12-04T03:56:31;-2.20;1.00
20349;DHT22;10332;50.208;18.988;2023-12-04T03:58:58;-2.20;1.00
20349;DHT22;10332;50.208;18.988;2023-12-04T04:01:26;-2.10;1.00
20349;DHT22;10332;50.208;18.988;2023-12-04T04:03:53;-2.20;1.00
20349;DHT22;10332;50.208;18.988;2023-12-04T04:06:20;-2.20;1.00
20349;DHT22;10332;50.208;18.988;2023-12-04T04:08:48;-2.20;1.00
20349;DHT22;10332;50.208;18.988;2023-12-04T04:11:15;-2.20;1.00
20349;DHT22;10332;50.208;18.988;2023-12-04T04:13:43;-2.20;1.00
20349;DHT22;10332;50.208;18.988;2023-12-04T04:16:14;-2.20;1.00
20349;DHT22;10332;50.208;18.988;2023-12-04T04:18:43;-2.20;1.00
20349;DHT22;10332;50.208;18.988;2023-12-04T04:21:10;-2.10;1.00
20349;DHT22;10332;50.208;18.988;2023-12-04T04:23:38;-2.10;1.00
20349;DHT22;10332;50.208;18.988;2023-12-04T04:26:05;-2.10;1.00
20349;DHT22;10332;50.208;18.988;2023-12-04T04:28:33;-2.10;99.90
20349;DHT22;10332;50.208;18.988;2023-12-04T04:31:00;-2.10;99.90
20349;DHT22;10332;50.208;18.988;2023-12-04T04:33:27;-2.00;99.90
20349;DHT22;10332;50.208;18.988;2023-12-04T04:35:55;-2.10;99.90
20349;DHT22;10332;50.208;18.988;2023-12-04T04:38:22;-2.10;99.90
20349;DHT22;10332;50.208;18.988;2023-12-04T04:40:49;-2.10;99.90
20349;DHT22;10332;50.208;18.988;2023-12-04T04:43:17;-2.10;99.90
20349;DHT22;10332;50.208;18.988;2023-12-04T04:45:44;-2.10;99.90
20349;DHT22;10332;50.208;18.988;2023-12-04T04:48:12;-2.10;99.90
20349;DHT22;10332;50.208;18.988;2023-12-04T04:50:39;-2.10;99.90
20349;DHT22;10332;50.208;18.988;2023-12-04T04:53:06;-2.10;99.90
20349;DHT22;10332;50.208;18.988;2023-12-04T04:55:34;-2.10;99.90
20349;DHT22;10332;50.208;18.988;2023-12-04T04:58:16;-2.00;1.00
20349;DHT22;10332;50.208;18.988;2023-12-04T05:00:44;-2.00;99.90
20349;DHT22;10332;50.208;18.988;2023-12-04T05:03:12;-2.00;99.90
20349;DHT22;10332;50.208;18.988;2023-12-04T05:05:39;-2.00;99.90
20349;DHT22;10332;50.208;18.988;2023-12-04T05:08:06;-1.90;99.90
20349;DHT22;10332;50.208;18.988;2023-12-04T05:10:34;-1.90;99.90
20349;DHT22;10332;50.208;18.988;2023-12-04T05:13:01;-2.00;99.90
20349;DHT22;10332;50.208;18.988;2023-12-04T05:15:29;-1.90;99.90
20349;DHT22;10332;50.208;18.988;2023-12-04T05:17:57;-1.90;99.90
20349;DHT22;10332;50.208;18.988;2023-12-04T05:20:24;-1.90;99.90
20349;DHT22;10332;50.208;18.988;2023-12-04T05:22:51;-1.90;99.90
20349;DHT22;10332;50.208;18.988;2023-12-04T05:25:19;-2.00;99.90
20349;DHT22;10332;50.208;18.988;2023-12-04T05:27:46;-2.00;9.00
20349;DHT22;10332;50.208;18.988;2023-12-04T05:30:16;-2.10;1.00
20349;DHT22;10332;50.208;18.988;2023-12-04T05:32:43;-2.20;99.90
20349;DHT22;10332;50.208;18.988;2023-12-04T05:35:11;-2.20;99.90
20349;DHT22;10332;50.208;18.988;2023-12-04T05:37:38;-2.30;99.90
20349;DHT22;10332;50.208;18.988;2023-12-04T05:40:06;-2.30;99.90
20349;DHT22;10332;50.208;18.988;2023-12-04T05:42:35;-2.40;99.90
20349;DHT22;10332;50.208;18.988;2023-12-04T05:45:03;-2.40;99.90
20349;DHT22;10332;50.208;18.988;2023-12-04T05:47:30;-2.40;99.90
20349;DHT22;10332;50.208;18.988;2023-12-04T05:49:58;-2.50;99.90
20349;DHT22;10332;50.208;18.988;2023-12-04T05:52:25;-2.60;1.00
20349;DHT22;10332;50.208;18.988;2023-12-04T05:54:52;-2.60;1.00
20349;DHT22;10332;50.208;18.988;2023-12-04T05:57:20;-2.70;1.00
20349;DHT22;10332;50.208;18.988;2023-12-04T05:59:47;-2.70;1.00
20349;DHT22;10332;50.208;18.988;2023-12-04T06:02:15;-2.70;1.00
20349;DHT22;10332;50.208;18.988;2023-12-04T06:04:43;-2.70;1.00
20349;DHT22;10332;50.208;18.988;2023-12-04T06:07:10;-2.70;1.00
20349;DHT22;10332;50.208;18.988;2023-12-04T06:09:37;-2.80;1.00
20349;DHT22;10332;50.208;18.988;2023-12-04T06:12:05;-2.80;1.00
20349;DHT22;10332;50.208;18.988;2023-12-04T06:14:35;-2.80;1.00
20349;DHT22;10332;50.208;18.988;2023-12-04T06:17:03;-2.80;1.00
20349;DHT22;10332;50.208;18.988;2023-12-04T06:19:31;-2.80;1.00
20349;DHT22;10332;50.208;18.988;2023-12-04T06:21:58;-2.80;1.00
20349;DHT22;10332;50.208;18.988;2023-12-04T06:24:26;-2.80;1.00
20349;DHT22;10332;50.208;18.988;2023-12-04T06:26:54;-2.70;1.00
20349;DHT22;10332;50.208;18.988;2023-12-04T06:29:21;-2.80;1.00
20349;DHT22;10332;50.208;18.988;2023-12-04T06:31:49;-2.70;1.00
20349;DHT22;10332;50.208;18.988;2023-12-04T06:34:16;-2.80;1.00
20349;DHT22;10332;50.208;18.988;2023-12-04T06:36:44;-2.80;1.00
20349;DHT22;10332;50.208;18.988;2023-12-04T06:39:12;-2.80;1.00
20349;DHT22;10332;50.208;18.988;2023-12-04T06:41:40;-2.70;1.00
20349;DHT22;10332;50.208;18.988;2023-12-04T06:44:08;-2.70;1.00
20349;DHT22;10332;50.208;18.988;2023-12-04T06:46:38;-2.70;1.00
20349;DHT22;10332;50.208;18.988;2023-12-04T06:49:06;-2.60;1.00
20349;DHT22;10332;50.208;18.988;2023-12-04T06:51:36;-2.70;1.00
20349;DHT22;10332;50.208;18.988;2023-12-04T06:54:03;-2.60;1.00
20349;DHT22;10332;50.208;18.988;2023-12-04T06:56:31;-2.60;1.00
20349;DHT22;10332;50.208;18.988;2023-12-04T06:58:59;-2.50;1.00
20349;DHT22;10332;50.208;18.988;2023-12-04T07:01:26;-2.40;1.00
20349;DHT22;10332;50.208;18.988;2023-12-04T07:03:54;-2.40;1.00
20349;DHT22;10332;50.208;18.988;2023-12-04T07:06:21;-2.40;1.00
20349;DHT22;10332;50.208;18.988;2023-12-04T07:08:49;-2.30;99.90
20349;DHT22;10332;50.208;18.988;2023-12-04T07:11:16;-2.30;99.90
20349;DHT22;10332;50.208;18.988;2023-12-04T07:13:43;-2.20;99.90
20349;DHT22;10332;50.208;18.988;2023-12-04T07:16:10;-2.30;99.90
20349;DHT22;10332;50.208;18.988;2023-12-04T07:18:38;-2.30;99.90
20349;DHT22;10332;50.208;18.988;2023-12-04T07:21:06;-2.20;99.90
20349;DHT22;10332;50.208;18.988;2023-12-04T07:23:33;-2.20;36.40
20349;DHT22;10332;50.208;18.988;2023-12-04T07:26:00;-2.20;88.60
20349;DHT22;10332;50.208;18.988;2023-12-04T07:28:28;-2.10;1.00
20349;DHT22;10332;50.208;18.988;2023-12-04T07:30:55;-2.10;1.00
20349;DHT22;10332;50.208;18.988;2023-12-04T07:33:23;-2.10;1.00
20349;DHT22;10332;50.208;18.988;2023-12-04T07:35:50;-2.00;1.00
20349;DHT22;10332;50.208;18.988;2023-12-04T07:38:19;-2.00;1.00
20349;DHT22;10332;50.208;18.988;2023-12-04T07:40:46;-1.90;1.00
20349;DHT22;10332;50.208;18.988;2023-12-04T07:43:14;-1.90;1.00
20349;DHT22;10332;50.208;18.988;2023-12-04T07:45:41;-1.80;1.00
20349;DHT22;10332;50.208;18.988;2023-12-04T07:48:09;-1.70;1.00
20349;DHT22;10332;50.208;18.988;2023-12-04T07:50:36;-1.30;1.00
20349;DHT22;10332;50.208;18.988;2023-12-04T07:53:05;-1.60;99.90
20349;DHT22;10332;50.208;18.988;2023-12-04T07:55:35;-1.50;1.00
20349;DHT22;10332;50.208;18.988;2023-12-04T07:58:02;-1.50;1.00
